createdAt,value
2023-01-22T00:00:37.116Z,83.68
2023-01-22T00:01:36.978Z,83.61
2023-01-22T00:03:47.173Z,83.23
2023-01-22T00:04:46.303Z,83.24
2023-01-22T00:05:46.460Z,83.76
2023-01-22T00:06:46.302Z,83.71
2023-01-22T00:07:48.351Z,83.57
2023-01-22T00:08:46.251Z,83.48
2023-01-22T00:09:46.330Z,83.35
2023-01-22T00:10:46.231Z,83.39
2023-01-22T00:11:46.353Z,83.55
2023-01-22T00:12:46.210Z,83.85
2023-01-22T00:13:46.392Z,83.84
2023-01-22T00:14:46.169Z,83.87
2023-01-22T00:15:46.255Z,84.28
2023-01-22T00:16:46.148Z,84.42
2023-01-22T00:17:46.263Z,84.37
2023-01-22T00:18:46.139Z,84.16
2023-01-22T00:19:46.194Z,83.88
2023-01-22T00:20:46.091Z,83.84
2023-01-22T00:21:46.229Z,83.81
2023-01-22T00:22:46.069Z,83.80
2023-01-22T00:23:46.272Z,83.96
2023-01-22T00:24:46.059Z,83.94
2023-01-22T00:25:46.101Z,84.04
2023-01-22T00:26:46.020Z,83.99
2023-01-22T00:27:46.137Z,83.91
2023-01-22T00:28:46.000Z,83.81
2023-01-22T00:29:47.097Z,83.82
2023-01-22T00:30:45.981Z,84.07
2023-01-22T00:31:46.219Z,84.35
2023-01-22T00:32:45.937Z,84.33
2023-01-22T00:33:46.149Z,84.13
2023-01-22T00:34:45.915Z,84.12
2023-01-22T00:35:45.954Z,84.07
2023-01-22T00:36:45.896Z,84.04
2023-01-22T00:37:46.025Z,84.14
2023-01-22T00:38:45.858Z,83.99
2023-01-22T00:39:45.948Z,84.11
2023-01-22T00:40:45.843Z,84.15
2023-01-22T00:41:45.986Z,84.00
2023-01-22T00:42:45.820Z,84.18
2023-01-22T00:43:45.924Z,84.18
2023-01-22T00:44:45.788Z,83.83
2023-01-22T00:45:45.856Z,83.67
2023-01-22T00:46:45.792Z,83.86
2023-01-22T00:48:06.815Z,83.95
2023-01-22T00:48:45.729Z,83.98
2023-01-22T00:49:45.845Z,83.86
2023-01-22T00:50:45.789Z,83.78
2023-01-22T00:51:45.867Z,84.01
2023-01-22T00:52:45.665Z,83.99
2023-01-22T00:53:45.795Z,83.84
2023-01-22T00:54:45.671Z,83.81
2023-01-22T00:55:45.738Z,83.78
2023-01-22T00:56:45.623Z,83.81
2023-01-22T00:57:45.764Z,83.88
2023-01-22T00:58:45.595Z,83.89
2023-01-22T00:59:45.764Z,83.92
2023-01-22T01:00:45.607Z,84.02
2023-01-22T01:01:45.668Z,83.65
2023-01-22T01:02:45.540Z,83.47
2023-01-22T01:03:45.675Z,83.59
2023-01-22T01:04:45.650Z,83.66
2023-01-22T01:05:45.654Z,83.61
2023-01-22T01:06:45.494Z,83.28
2023-01-22T01:07:45.644Z,83.20
2023-01-22T01:08:45.469Z,83.48
2023-01-22T01:09:45.583Z,83.59
2023-01-22T01:10:45.433Z,83.46
2023-01-22T01:11:45.551Z,83.68
2023-01-22T01:12:45.411Z,83.88
2023-01-22T01:13:45.457Z,84.00
2023-01-22T01:14:45.424Z,83.97
2023-01-22T01:15:47.600Z,83.76
2023-01-22T01:16:45.353Z,83.66
2023-01-22T01:17:45.476Z,83.90
2023-01-22T01:18:45.323Z,83.76
2023-01-22T01:19:45.453Z,83.55
2023-01-22T01:20:45.304Z,83.78
2023-01-22T01:22:54.691Z,83.46
2023-01-22T01:23:54.560Z,83.46
2023-01-22T01:24:54.701Z,83.60
2023-01-22T01:25:54.534Z,83.57
2023-01-22T01:26:55.562Z,83.50
2023-01-22T01:27:54.509Z,83.38
2023-01-22T01:28:54.572Z,83.57
2023-01-22T01:29:54.481Z,83.44
2023-01-22T01:30:54.627Z,83.32
2023-01-22T01:31:54.557Z,83.44
2023-01-22T01:32:54.553Z,83.60
2023-01-22T01:33:54.429Z,83.61
2023-01-22T01:34:54.524Z,83.54
2023-01-22T01:35:54.401Z,83.45
2023-01-22T01:36:54.512Z,83.47
2023-01-22T01:37:54.379Z,83.72
2023-01-22T01:38:54.452Z,83.60
2023-01-22T01:39:54.352Z,83.79
2023-01-22T01:40:54.459Z,83.78
2023-01-22T01:41:54.332Z,83.79
2023-01-22T01:42:54.420Z,83.68
2023-01-22T01:43:54.300Z,83.78
2023-01-22T01:44:54.349Z,83.88
2023-01-22T01:45:54.270Z,84.12
2023-01-22T01:46:54.556Z,84.04
2023-01-22T01:47:54.277Z,84.02
2023-01-22T01:48:54.328Z,84.15
2023-01-22T01:49:54.221Z,84.41
2023-01-22T01:50:56.505Z,84.28
2023-01-22T01:51:54.198Z,83.93
2023-01-22T01:52:54.359Z,83.96
2023-01-22T01:53:54.170Z,83.96
2023-01-22T01:54:54.229Z,83.96
2023-01-22T01:55:54.159Z,83.65
2023-01-22T01:56:54.264Z,83.35
2023-01-22T01:57:54.118Z,83.33
2023-01-22T01:58:54.187Z,83.36
2023-01-22T01:59:54.104Z,83.47
2023-01-22T02:00:54.180Z,83.33
2023-01-22T02:01:54.094Z,83.38
2023-01-22T02:02:54.179Z,83.35
2023-01-22T02:03:54.037Z,83.55
2023-01-22T02:04:54.159Z,83.38
2023-01-22T02:05:54.023Z,83.32
2023-01-22T02:06:54.147Z,83.23
2023-01-22T02:07:53.986Z,83.19
2023-01-22T02:08:54.076Z,83.33
2023-01-22T02:09:53.971Z,83.62
2023-01-22T02:10:54.179Z,83.54
2023-01-22T02:11:53.943Z,83.34
2023-01-22T02:12:54.059Z,83.09
2023-01-22T02:13:53.904Z,82.94
2023-01-22T02:14:53.988Z,82.87
2023-01-22T02:15:53.893Z,82.36
2023-01-22T02:16:53.965Z,82.49
2023-01-22T02:17:53.860Z,82.27
2023-01-22T02:18:53.866Z,82.41
2023-01-22T02:19:53.836Z,82.58
2023-01-22T02:20:55.015Z,82.77
2023-01-22T02:21:53.807Z,82.58
2023-01-22T02:22:53.874Z,82.59
2023-01-22T02:23:53.781Z,82.60
2023-01-22T02:24:53.874Z,82.54
2023-01-22T02:25:53.754Z,82.66
2023-01-22T02:26:55.892Z,82.78
2023-01-22T02:27:53.727Z,83.03
2023-01-22T02:28:53.911Z,82.88
2023-01-22T02:29:53.712Z,82.60
2023-01-22T02:30:53.848Z,82.63
2023-01-22T02:31:53.769Z,82.73
2023-01-22T02:32:53.781Z,82.74
2023-01-22T02:33:53.655Z,82.87
2023-01-22T02:34:53.799Z,83.15
2023-01-22T02:35:53.625Z,83.17
2023-01-22T02:36:53.770Z,83.10
2023-01-22T02:37:53.603Z,82.81
2023-01-22T02:38:54.641Z,82.77
2023-01-22T02:39:53.574Z,82.57
2023-01-22T02:40:53.691Z,82.62
2023-01-22T02:41:53.570Z,82.64
2023-01-22T02:42:53.688Z,82.58
2023-01-22T02:43:53.526Z,82.80
2023-01-22T02:44:53.611Z,82.83
2023-01-22T02:45:53.522Z,82.85
2023-01-22T02:46:53.746Z,82.58
2023-01-22T02:47:53.471Z,82.75
2023-01-22T02:48:53.601Z,82.76
2023-01-22T02:49:53.440Z,82.51
2023-01-22T02:50:53.553Z,82.66
2023-01-22T02:51:53.418Z,82.46
2023-01-22T02:52:53.517Z,82.20
2023-01-22T02:53:53.393Z,82.39
2023-01-22T02:54:53.493Z,82.38
2023-01-22T02:55:53.373Z,82.85
2023-01-22T02:56:54.451Z,82.77
2023-01-22T02:57:53.339Z,82.82
2023-01-22T02:58:53.413Z,82.75
2023-01-22T02:59:53.318Z,82.82
2023-01-22T03:00:53.444Z,82.48
2023-01-22T03:01:53.342Z,82.41
2023-01-22T03:02:54.358Z,82.49
2023-01-22T03:03:53.275Z,82.53
2023-01-22T03:04:53.420Z,82.76
2023-01-22T03:05:53.237Z,82.60
2023-01-22T03:06:53.399Z,82.65
2023-01-22T03:07:53.208Z,82.72
2023-01-22T03:08:53.337Z,82.89
2023-01-22T03:09:53.187Z,82.90
2023-01-22T03:10:53.326Z,82.93
2023-01-22T03:11:53.156Z,82.98
2023-01-22T03:12:53.319Z,83.03
2023-01-22T03:13:53.138Z,82.92
2023-01-22T03:14:53.260Z,82.79
2023-01-22T03:15:53.116Z,82.78
2023-01-22T03:16:53.232Z,82.75
2023-01-22T03:17:53.087Z,82.76
2023-01-22T03:18:53.214Z,82.73
2023-01-22T03:19:53.057Z,82.58
2023-01-22T03:20:55.252Z,82.49
2023-01-22T03:21:53.028Z,82.50
2023-01-22T03:22:53.143Z,82.76
2023-01-22T03:23:53.016Z,82.42
2023-01-22T03:24:54.146Z,82.40
2023-01-22T03:25:52.974Z,82.33
2023-01-22T03:26:53.054Z,82.45
2023-01-22T03:27:52.963Z,82.63
2023-01-22T03:28:53.056Z,82.50
2023-01-22T03:29:52.927Z,82.50
2023-01-22T03:30:55.164Z,82.40
2023-01-22T03:31:52.935Z,82.55
2023-01-22T03:32:53.005Z,82.40
2023-01-22T03:33:52.884Z,82.34
2023-01-22T03:34:52.955Z,82.50
2023-01-22T03:35:52.843Z,82.55
2023-01-22T03:36:52.934Z,82.71
2023-01-22T03:37:52.813Z,82.70
2023-01-22T03:38:52.963Z,82.83
2023-01-22T03:39:52.792Z,82.79
2023-01-22T03:40:52.942Z,82.65
2023-01-22T03:41:52.786Z,82.66
2023-01-22T03:42:54.930Z,82.55
2023-01-22T03:43:52.764Z,82.81
2023-01-22T03:44:52.767Z,82.63
2023-01-22T03:45:52.745Z,82.72
2023-01-22T03:46:52.857Z,82.53
2023-01-22T03:47:52.689Z,82.52
2023-01-22T03:48:52.839Z,82.40
2023-01-22T03:49:52.667Z,82.27
2023-01-22T03:50:52.813Z,82.45
2023-01-22T03:51:52.667Z,82.27
2023-01-22T03:52:54.818Z,82.25
2023-01-22T03:53:52.632Z,82.41
2023-01-22T03:54:52.650Z,82.36
2023-01-22T03:55:52.591Z,82.22
2023-01-22T03:56:52.682Z,82.11
2023-01-22T03:57:52.571Z,82.01
2023-01-22T03:58:53.691Z,81.86
2023-01-22T03:59:52.539Z,81.95
2023-01-22T04:00:52.705Z,82.16
2023-01-22T04:01:52.539Z,82.10
2023-01-22T04:02:52.608Z,82.10
2023-01-22T04:03:52.500Z,82.32
2023-01-22T04:04:55.769Z,82.27
2023-01-22T04:05:52.470Z,82.24
2023-01-22T04:07:13.533Z,82.30
2023-01-22T04:07:52.440Z,82.22
2023-01-22T04:08:52.587Z,82.18
2023-01-22T04:09:52.400Z,82.27
2023-01-22T04:10:53.609Z,82.32
2023-01-22T04:11:52.379Z,82.47
2023-01-22T04:12:52.477Z,82.65
2023-01-22T04:13:52.357Z,82.62
2023-01-22T04:14:52.398Z,82.68
2023-01-22T04:15:52.349Z,82.65
2023-01-22T04:16:54.483Z,82.44
2023-01-22T04:17:52.321Z,82.47
2023-01-22T04:18:52.466Z,82.54
2023-01-22T04:19:52.281Z,82.51
2023-01-22T04:20:52.410Z,82.57
2023-01-22T04:21:52.246Z,82.41
2023-01-22T04:22:52.396Z,82.50
2023-01-22T04:23:52.219Z,82.47
2023-01-22T04:24:52.375Z,82.24
2023-01-22T04:25:52.216Z,82.21
2023-01-22T04:26:52.306Z,82.26
2023-01-22T04:27:52.187Z,82.35
2023-01-22T04:28:52.296Z,82.25
2023-01-22T04:29:52.146Z,82.22
2023-01-22T04:30:52.256Z,82.35
2023-01-22T04:31:52.126Z,82.18
2023-01-22T04:32:52.226Z,82.11
2023-01-22T04:33:52.097Z,82.19
2023-01-22T04:34:52.206Z,82.45
2023-01-22T04:35:52.085Z,82.32
2023-01-22T04:36:52.187Z,82.39
2023-01-22T04:37:52.046Z,82.24
2023-01-22T04:38:52.225Z,82.49
2023-01-22T04:39:52.016Z,82.65
2023-01-22T04:40:52.112Z,82.47
2023-01-22T04:41:52.005Z,82.33
2023-01-22T04:42:52.104Z,82.53
2023-01-22T04:43:51.963Z,82.50
2023-01-22T04:44:52.135Z,82.17
2023-01-22T04:45:51.967Z,82.24
2023-01-22T04:46:52.114Z,82.28
2023-01-22T04:47:51.928Z,82.14
2023-01-22T04:48:51.994Z,82.25
2023-01-22T04:49:51.888Z,82.18
2023-01-22T04:51:12.945Z,82.46
2023-01-22T04:51:51.862Z,82.67
2023-01-22T04:52:53.978Z,82.71
2023-01-22T04:53:51.833Z,82.67
2023-01-22T04:54:52.031Z,82.85
2023-01-22T04:55:51.812Z,83.26
2023-01-22T04:56:54.032Z,83.23
2023-01-22T04:57:51.774Z,83.21
2023-01-22T04:58:51.932Z,83.12
2023-01-22T04:59:51.751Z,83.34
2023-01-22T05:00:51.813Z,83.47
2023-01-22T05:01:51.735Z,83.81
2023-01-22T05:02:53.902Z,83.92
2023-01-22T05:03:51.711Z,83.79
2023-01-22T05:04:51.834Z,83.78
2023-01-22T05:05:51.682Z,83.51
2023-01-22T05:06:51.811Z,83.56
2023-01-22T05:07:51.654Z,83.38
2023-01-22T05:08:51.751Z,83.21
2023-01-22T05:09:51.621Z,83.44
2023-01-22T05:10:51.731Z,83.64
2023-01-22T05:11:51.600Z,83.42
2023-01-22T05:12:51.734Z,83.11
2023-01-22T05:13:51.571Z,83.20
2023-01-22T05:15:23.494Z,83.41
2023-01-22T05:15:52.723Z,83.30
2023-01-22T05:16:51.593Z,83.22
2023-01-22T05:17:51.530Z,83.40
2023-01-22T05:18:51.628Z,83.55
2023-01-22T05:19:51.500Z,83.67
2023-01-22T05:20:51.562Z,83.72
2023-01-22T05:21:51.495Z,84.03
2023-01-22T05:22:51.607Z,83.93
2023-01-22T05:23:51.439Z,83.92
2023-01-22T05:24:51.630Z,83.90
2023-01-22T05:25:51.444Z,83.97
2023-01-22T05:26:51.459Z,83.87
2023-01-22T05:27:51.412Z,83.85
2023-01-22T05:28:51.607Z,83.90
2023-01-22T05:29:51.370Z,83.88
2023-01-22T05:30:53.623Z,83.64
2023-01-22T05:31:51.343Z,83.54
2023-01-22T05:32:51.477Z,83.65
2023-01-22T05:33:51.329Z,83.88
2023-01-22T05:34:51.509Z,83.97
2023-01-22T05:35:51.288Z,84.01
2023-01-22T05:38:00.669Z,84.07
2023-01-22T05:39:00.630Z,84.08
2023-01-22T05:40:00.773Z,84.48
2023-01-22T05:41:00.587Z,84.50
2023-01-22T05:42:02.696Z,84.33
2023-01-22T05:43:00.561Z,84.30
2023-01-22T05:44:00.632Z,84.50
2023-01-22T05:45:00.560Z,84.57
2023-01-22T05:46:00.689Z,84.81
2023-01-22T05:47:00.509Z,84.94
2023-01-22T05:48:21.612Z,84.98
2023-01-22T05:49:00.480Z,84.89
2023-01-22T05:50:00.528Z,85.14
2023-01-22T05:51:00.511Z,85.30
2023-01-22T05:52:00.585Z,85.47
2023-01-22T05:53:00.459Z,85.76
2023-01-22T05:54:21.479Z,85.83
2023-01-22T05:55:00.398Z,85.93
2023-01-22T05:56:00.390Z,86.12
2023-01-22T05:57:00.472Z,86.02
2023-01-22T05:58:00.371Z,85.93
2023-01-22T05:59:01.467Z,86.04
2023-01-22T06:00:00.354Z,86.30
2023-01-22T06:01:00.480Z,86.22
2023-01-22T06:02:00.326Z,86.14
2023-01-22T06:03:00.468Z,86.25
2023-01-22T06:04:00.304Z,86.42
2023-01-22T06:05:21.360Z,86.51
2023-01-22T06:06:00.258Z,86.46
2023-01-22T06:07:00.385Z,86.41
2023-01-22T06:08:00.236Z,86.39
2023-01-22T06:09:00.369Z,86.55
2023-01-22T06:10:00.208Z,86.75
2023-01-22T06:11:00.361Z,86.84
2023-01-22T06:12:00.180Z,86.87
2023-01-22T06:13:00.287Z,86.87
2023-01-22T06:14:00.154Z,87.10
2023-01-22T06:15:00.284Z,87.15
2023-01-22T06:16:00.273Z,87.30
2023-01-22T06:18:09.452Z,87.06
2023-01-22T06:19:09.331Z,87.05
2023-01-22T06:20:09.434Z,87.45
2023-01-22T06:21:09.313Z,87.37
2023-01-22T06:22:11.452Z,87.56
2023-01-22T06:23:09.281Z,87.69
2023-01-22T06:24:09.445Z,87.69
2023-01-22T06:25:09.251Z,87.71
2023-01-22T06:26:09.444Z,87.63
2023-01-22T06:27:09.234Z,87.51
2023-01-22T06:28:09.321Z,87.58
2023-01-22T06:29:09.204Z,87.78
2023-01-22T06:30:09.253Z,87.84
2023-01-22T06:31:09.278Z,87.74
2023-01-22T06:32:09.340Z,87.83
2023-01-22T06:33:09.156Z,88.02
2023-01-22T06:34:10.257Z,88.10
2023-01-22T06:35:09.121Z,88.16
2023-01-22T06:36:09.157Z,88.20
2023-01-22T06:37:09.100Z,88.26
2023-01-22T06:38:09.139Z,88.37
2023-01-22T06:39:09.089Z,88.45
2023-01-22T06:40:09.086Z,88.36
2023-01-22T06:41:09.048Z,88.30
2023-01-22T06:42:09.180Z,88.36
2023-01-22T06:43:10.615Z,88.40
2023-01-22T06:44:12.429Z,88.49
2023-01-22T06:45:08.995Z,88.38
2023-01-22T06:46:09.053Z,88.34
2023-01-22T06:47:08.985Z,88.31
2023-01-22T06:48:09.069Z,88.18
2023-01-22T06:49:08.988Z,88.12
2023-01-22T06:50:12.337Z,88.10
2023-01-22T06:51:08.932Z,88.14
2023-01-22T06:52:09.039Z,87.98
2023-01-22T06:53:08.903Z,88.00
2023-01-22T06:54:09.087Z,88.29
2023-01-22T06:55:08.858Z,88.50
2023-01-22T06:56:08.958Z,88.44
2023-01-22T06:57:08.835Z,88.28
2023-01-22T06:58:08.900Z,88.01
2023-01-22T06:59:08.814Z,88.07
2023-01-22T07:00:08.896Z,88.15
2023-01-22T07:01:08.779Z,88.28
2023-01-22T07:02:12.136Z,88.32
2023-01-22T07:03:08.746Z,88.40
2023-01-22T07:04:08.856Z,88.51
2023-01-22T07:05:08.736Z,88.69
2023-01-22T07:06:08.788Z,88.82
2023-01-22T07:07:08.704Z,88.84
2023-01-22T07:08:09.796Z,88.82
2023-01-22T07:09:08.677Z,88.75
2023-01-22T07:10:08.765Z,88.74
2023-01-22T07:11:08.652Z,88.63
2023-01-22T07:12:08.812Z,88.66
2023-01-22T07:13:08.615Z,88.71
2023-01-22T07:14:08.680Z,88.66
2023-01-22T07:15:08.595Z,88.79
2023-01-22T07:16:08.735Z,88.90
2023-01-22T07:17:08.580Z,88.80
2023-01-22T07:18:08.716Z,88.63
2023-01-22T07:19:08.546Z,88.60
2023-01-22T07:20:08.691Z,88.71
2023-01-22T07:21:08.523Z,88.74
2023-01-22T07:22:08.674Z,88.84
2023-01-22T07:23:08.494Z,88.77
2023-01-22T07:24:08.744Z,88.54
2023-01-22T07:25:08.471Z,88.54
2023-01-22T07:26:08.589Z,88.63
2023-01-22T07:27:08.433Z,88.61
2023-01-22T07:28:08.577Z,88.59
2023-01-22T07:29:08.414Z,88.55
2023-01-22T07:30:08.433Z,88.42
2023-01-22T07:31:08.446Z,88.49
2023-01-22T07:32:08.503Z,88.55
2023-01-22T07:33:08.352Z,88.49
2023-01-22T07:34:08.480Z,88.46
2023-01-22T07:35:08.338Z,88.40
2023-01-22T07:36:09.442Z,88.24
2023-01-22T07:37:08.311Z,88.40
2023-01-22T07:38:08.408Z,88.57
2023-01-22T07:39:08.289Z,88.51
2023-01-22T07:40:08.385Z,88.46
2023-01-22T07:41:17.157Z,88.26
2023-01-22T07:42:09.258Z,88.28
2023-01-22T07:43:30.341Z,88.36
2023-01-22T07:44:08.211Z,88.47
2023-01-22T07:45:08.331Z,88.50
2023-01-22T07:46:08.209Z,88.42
2023-01-22T07:47:08.258Z,88.26
2023-01-22T07:48:08.170Z,88.30
2023-01-22T07:49:08.255Z,88.34
2023-01-22T07:50:08.143Z,88.21
2023-01-22T07:51:08.260Z,88.32
2023-01-22T07:52:08.127Z,88.18
2023-01-22T07:53:10.262Z,88.19
2023-01-22T07:54:08.079Z,88.29
2023-01-22T07:55:08.158Z,88.26
2023-01-22T07:56:08.060Z,88.31
2023-01-22T07:57:08.128Z,88.37
2023-01-22T07:58:08.032Z,88.23
2023-01-22T08:00:17.858Z,88.24
2023-01-22T08:01:17.271Z,88.26
2023-01-22T08:02:19.397Z,88.61
2023-01-22T08:03:19.456Z,88.52
2023-01-22T08:04:17.209Z,88.40
2023-01-22T08:05:17.291Z,88.34
2023-01-22T08:06:17.190Z,88.39
2023-01-22T08:07:17.219Z,88.46
2023-01-22T08:08:17.164Z,88.36
2023-01-22T08:09:17.250Z,88.31
2023-01-22T08:10:17.587Z,88.36
2023-01-22T08:11:17.291Z,88.37
2023-01-22T08:12:17.109Z,88.46
2023-01-22T08:13:19.219Z,88.32
2023-01-22T08:14:17.080Z,88.25
2023-01-22T08:15:19.152Z,88.38
2023-01-22T08:16:17.124Z,88.51
2023-01-22T08:17:17.098Z,88.56
2023-01-22T08:18:19.090Z,88.51
2023-01-22T08:19:18.158Z,88.43
2023-01-22T08:20:17.450Z,88.40
2023-01-22T08:21:18.095Z,88.54
2023-01-22T08:22:16.972Z,88.59
2023-01-22T08:23:17.116Z,88.63
2023-01-22T08:24:16.981Z,88.61
2023-01-22T08:25:17.044Z,88.55
2023-01-22T08:26:16.929Z,88.43
2023-01-22T08:27:19.066Z,88.43
2023-01-22T08:28:16.895Z,88.60
2023-01-22T08:29:17.007Z,88.52
2023-01-22T08:30:17.074Z,88.61
2023-01-22T08:31:27.327Z,88.77
2023-01-22T08:32:17.898Z,88.84
2023-01-22T08:33:16.875Z,88.68
2023-01-22T08:34:16.835Z,88.54
2023-01-22T08:35:17.942Z,88.60
2023-01-22T08:36:16.817Z,88.65
2023-01-22T08:37:17.897Z,88.71
2023-01-22T08:38:16.764Z,88.63
2023-01-22T08:39:17.908Z,88.70
2023-01-22T08:40:17.063Z,88.68
2023-01-22T08:41:16.934Z,88.61
2023-01-22T08:42:16.742Z,88.60
2023-01-22T08:43:18.866Z,88.59
2023-01-22T08:44:16.683Z,88.63
2023-01-22T08:45:16.795Z,88.67
2023-01-22T08:46:16.657Z,88.61
2023-01-22T08:47:16.823Z,88.50
2023-01-22T08:48:16.657Z,88.29
2023-01-22T08:49:17.703Z,88.28
2023-01-22T08:50:16.881Z,88.30
2023-01-22T08:51:16.866Z,88.31
2023-01-22T08:52:16.579Z,88.31
2023-01-22T08:53:16.604Z,88.33
2023-01-22T08:54:16.583Z,88.31
2023-01-22T08:55:16.612Z,88.29
2023-01-22T08:56:16.532Z,88.06
2023-01-22T08:57:16.750Z,87.99
2023-01-22T08:58:16.521Z,88.00
2023-01-22T08:59:16.552Z,87.92
2023-01-22T09:00:16.853Z,87.82
2023-01-22T09:01:16.650Z,87.88
2023-01-22T09:02:16.474Z,88.03
2023-01-22T09:03:16.473Z,88.22
2023-01-22T09:04:16.422Z,88.47
2023-01-22T09:05:17.513Z,88.44
2023-01-22T09:06:16.437Z,88.37
2023-01-22T09:07:17.430Z,88.47
2023-01-22T09:08:16.370Z,88.30
2023-01-22T09:09:16.521Z,88.23
2023-01-22T09:10:16.800Z,88.17
2023-01-22T09:11:16.450Z,88.10
2023-01-22T09:12:16.342Z,88.14
2023-01-22T09:13:16.385Z,88.28
2023-01-22T09:14:16.299Z,88.28
2023-01-22T09:15:16.440Z,88.08
2023-01-22T09:16:16.299Z,88.14
2023-01-22T09:17:16.460Z,88.22
2023-01-22T09:18:16.276Z,88.09
2023-01-22T09:19:16.290Z,88.16
2023-01-22T09:20:16.662Z,88.21
2023-01-22T09:21:16.335Z,88.22
2023-01-22T09:22:16.199Z,88.08
2023-01-22T09:23:16.299Z,88.06
2023-01-22T09:24:16.201Z,87.78
2023-01-22T09:26:25.578Z,87.53
2023-01-22T09:27:25.469Z,87.54
2023-01-22T09:28:25.608Z,87.90
2023-01-22T09:29:25.458Z,87.85
2023-01-22T09:30:27.743Z,87.98
2023-01-22T09:31:25.446Z,88.00
2023-01-22T09:32:25.580Z,88.10
2023-01-22T09:33:25.397Z,88.18
2023-01-22T09:34:25.418Z,88.10
2023-01-22T09:35:25.389Z,88.17
2023-01-22T09:36:25.417Z,88.17
2023-01-22T09:37:25.356Z,87.97
2023-01-22T09:38:25.487Z,87.82
2023-01-22T09:39:25.314Z,87.62
2023-01-22T09:40:25.354Z,87.63
2023-01-22T09:41:25.318Z,87.84
2023-01-22T09:42:25.459Z,88.17
2023-01-22T09:43:25.265Z,88.36
2023-01-22T09:44:25.294Z,88.33
2023-01-22T09:45:25.238Z,88.37
2023-01-22T09:46:26.325Z,88.36
2023-01-22T09:47:25.236Z,88.33
2023-01-22T09:48:25.374Z,88.05
2023-01-22T09:49:25.190Z,87.99
2023-01-22T09:50:25.306Z,88.04
2023-01-22T09:51:25.315Z,88.22
2023-01-22T09:52:25.236Z,88.33
2023-01-22T09:53:25.162Z,88.38
2023-01-22T09:54:26.206Z,88.35
2023-01-22T09:55:25.118Z,88.31
2023-01-22T09:56:25.206Z,88.32
2023-01-22T09:57:31.544Z,88.42
2023-01-22T09:58:26.088Z,88.55
2023-01-22T09:59:25.205Z,88.54
2023-01-22T10:00:25.044Z,88.36
2023-01-22T10:01:25.143Z,88.35
2023-01-22T10:02:25.048Z,88.34
2023-01-22T10:03:25.175Z,88.48
2023-01-22T10:04:25.031Z,88.33
2023-01-22T10:05:26.143Z,88.30
2023-01-22T10:06:24.975Z,88.31
2023-01-22T10:07:26.073Z,88.31
2023-01-22T10:08:24.943Z,88.47
2023-01-22T10:09:25.085Z,88.62
2023-01-22T10:10:24.935Z,88.66
2023-01-22T10:11:25.027Z,88.50
2023-01-22T10:12:24.904Z,88.65
2023-01-22T10:13:27.055Z,88.53
2023-01-22T10:14:24.873Z,88.33
2023-01-22T10:15:24.889Z,88.28
2023-01-22T10:16:24.884Z,88.31
2023-01-22T10:17:25.921Z,88.18
2023-01-22T10:18:24.812Z,88.16
2023-01-22T10:19:24.982Z,88.17
2023-01-22T10:20:24.782Z,88.05
2023-01-22T10:21:24.893Z,88.06
2023-01-22T10:22:24.793Z,88.10
2023-01-22T10:23:24.931Z,88.14
2023-01-22T10:24:24.731Z,88.12
2023-01-22T10:25:24.761Z,88.03
2023-01-22T10:26:24.713Z,88.10
2023-01-22T10:27:24.805Z,88.16
2023-01-22T10:28:24.724Z,88.11
2023-01-22T10:29:46.741Z,88.01
2023-01-22T10:30:24.663Z,88.04
2023-01-22T10:31:24.762Z,88.03
2023-01-22T10:32:24.639Z,88.14
2023-01-22T10:33:24.809Z,88.10
2023-01-22T10:34:24.619Z,88.10
2023-01-22T10:35:24.640Z,88.06
2023-01-22T10:36:24.578Z,88.09
2023-01-22T10:37:24.670Z,88.13
2023-01-22T10:38:24.558Z,88.19
2023-01-22T10:39:24.708Z,88.17
2023-01-22T10:40:24.551Z,88.11
2023-01-22T10:41:26.740Z,88.19
2023-01-22T10:42:24.503Z,88.16
2023-01-22T10:43:24.577Z,88.28
2023-01-22T10:44:24.479Z,88.46
2023-01-22T10:45:25.537Z,88.36
2023-01-22T10:46:24.512Z,88.15
2023-01-22T10:47:24.559Z,88.14
2023-01-22T10:48:24.436Z,88.26
2023-01-22T10:49:24.603Z,88.37
2023-01-22T10:50:24.404Z,88.30
2023-01-22T10:51:24.571Z,88.25
2023-01-22T10:52:24.393Z,88.28
2023-01-22T10:53:24.459Z,88.21
2023-01-22T10:54:24.356Z,88.02
2023-01-22T10:55:24.399Z,87.98
2023-01-22T10:56:24.315Z,88.20
2023-01-22T10:57:24.426Z,88.09
2023-01-22T10:58:24.310Z,88.01
2023-01-22T10:59:26.459Z,88.00
2023-01-22T11:00:24.267Z,88.14
2023-01-22T11:01:24.303Z,88.09
2023-01-22T11:02:24.354Z,88.04
2023-01-22T11:03:25.356Z,87.96
2023-01-22T11:04:24.249Z,87.98
2023-01-22T11:05:25.298Z,88.06
2023-01-22T11:06:24.196Z,87.89
2023-01-22T11:07:24.315Z,87.82
2023-01-22T11:08:24.164Z,87.83
2023-01-22T11:09:24.349Z,87.68
2023-01-22T11:10:24.189Z,87.28
2023-01-22T11:11:24.175Z,87.41
2023-01-22T11:12:24.122Z,87.41
2023-01-22T11:13:24.215Z,87.37
2023-01-22T11:14:24.086Z,87.18
2023-01-22T11:15:24.249Z,87.05
2023-01-22T11:16:24.076Z,87.08
2023-01-22T11:17:24.184Z,87.14
2023-01-22T11:18:24.032Z,87.34
2023-01-22T11:19:36.327Z,87.37
2023-01-22T11:20:25.014Z,87.50
2023-01-22T11:21:26.143Z,87.42
2023-01-22T11:22:23.993Z,87.55
2023-01-22T11:23:46.097Z,87.69
2023-01-22T11:24:23.955Z,87.89
2023-01-22T11:25:24.123Z,87.92
2023-01-22T11:26:23.937Z,87.72
2023-01-22T11:27:25.081Z,87.76
2023-01-22T11:28:23.923Z,87.70
2023-01-22T11:29:23.991Z,87.92
2023-01-22T11:30:24.406Z,88.00
2023-01-22T11:31:25.039Z,88.05
2023-01-22T11:32:23.860Z,87.92
2023-01-22T11:33:23.962Z,87.92
2023-01-22T11:34:23.851Z,87.93
2023-01-22T11:35:46.971Z,87.94
2023-01-22T11:36:23.805Z,88.03
2023-01-22T11:37:23.939Z,87.77
2023-01-22T11:38:23.790Z,87.76
2023-01-22T11:39:23.871Z,87.93
2023-01-22T11:40:23.779Z,87.95
2023-01-22T11:41:23.805Z,87.83
2023-01-22T11:42:23.721Z,87.78
2023-01-22T11:43:23.839Z,87.77
2023-01-22T11:44:23.692Z,87.74
2023-01-22T11:45:23.879Z,87.40
2023-01-22T11:46:23.725Z,87.26
2023-01-22T11:47:23.821Z,87.44
2023-01-22T11:48:23.658Z,87.54
2023-01-22T11:49:23.739Z,87.24
2023-01-22T11:50:23.629Z,87.21
2023-01-22T11:51:25.804Z,87.40
2023-01-22T11:52:23.629Z,87.58
2023-01-22T11:53:23.717Z,87.62
2023-01-22T11:54:23.567Z,87.44
2023-01-22T11:55:23.757Z,87.14
2023-01-22T11:56:23.547Z,86.92
2023-01-22T11:57:24.609Z,86.98
2023-01-22T11:58:23.545Z,87.00
2023-01-22T11:59:23.627Z,86.99
2023-01-22T12:00:23.496Z,86.97
2023-01-22T12:01:23.557Z,87.09
2023-01-22T12:02:23.495Z,87.03
2023-01-22T12:03:23.614Z,87.00
2023-01-22T12:04:23.460Z,87.08
2023-01-22T12:05:23.530Z,87.03
2023-01-22T12:06:23.408Z,86.95
2023-01-22T12:07:23.456Z,87.08
2023-01-22T12:08:23.388Z,87.27
2023-01-22T12:09:24.543Z,87.17
2023-01-22T12:10:23.388Z,87.14
2023-01-22T12:11:23.424Z,87.25
2023-01-22T12:12:23.336Z,87.27
2023-01-22T12:13:23.469Z,87.41
2023-01-22T12:14:23.319Z,87.14
2023-01-22T12:15:24.327Z,87.09
2023-01-22T12:16:23.373Z,86.92
2023-01-22T12:17:23.347Z,86.79
2023-01-22T12:18:23.254Z,86.90
2023-01-22T12:19:23.382Z,86.93
2023-01-22T12:20:23.242Z,86.93
2023-01-22T12:21:23.308Z,86.91
2023-01-22T12:22:23.224Z,87.00
2023-01-22T12:23:23.368Z,87.03
2023-01-22T12:24:23.187Z,87.00
2023-01-22T12:25:23.318Z,87.04
2023-01-22T12:26:23.156Z,87.07
2023-01-22T12:27:23.217Z,87.20
2023-01-22T12:28:23.146Z,87.33
2023-01-22T12:29:23.254Z,87.31
2023-01-22T12:30:23.103Z,87.07
2023-01-22T12:31:24.329Z,86.75
2023-01-22T12:32:23.082Z,86.71
2023-01-22T12:33:44.256Z,86.87
2023-01-22T12:34:23.056Z,86.77
2023-01-22T12:35:23.067Z,86.83
2023-01-22T12:36:23.224Z,86.90
2023-01-22T12:37:23.020Z,86.70
2023-01-22T12:38:23.065Z,86.79
2023-01-22T12:39:23.027Z,86.78
2023-01-22T12:40:23.103Z,86.70
2023-01-22T12:41:22.969Z,86.52
2023-01-22T12:42:22.987Z,86.54
2023-01-22T12:43:22.944Z,86.57
2023-01-22T12:44:24.095Z,86.60
2023-01-22T12:45:22.921Z,86.80
2023-01-22T12:46:23.156Z,86.82
2023-01-22T12:47:22.890Z,86.75
2023-01-22T12:48:22.942Z,86.82
2023-01-22T12:49:22.860Z,86.70
2023-01-22T12:50:43.902Z,86.84
2023-01-22T12:51:22.912Z,86.57
2023-01-22T12:52:22.907Z,86.66
2023-01-22T12:53:22.822Z,86.73
2023-01-22T12:54:22.957Z,86.57
2023-01-22T12:55:22.794Z,86.66
2023-01-22T12:56:22.830Z,86.77
2023-01-22T12:57:22.757Z,86.73
2023-01-22T12:58:22.813Z,86.75
2023-01-22T12:59:22.720Z,86.81